createdAt,value
2018-11-03T00:01:51.479Z,7.40
2018-11-03T00:07:13.327Z,7.30
2018-11-03T00:09:42.197Z,7.30
2018-11-03T00:12:10.952Z,7.30
2018-11-03T00:14:39.719Z,7.30
2018-11-03T00:17:08.476Z,7.30
2018-11-03T00:19:37.322Z,7.30
2018-11-03T00:22:06.126Z,7.40
2018-11-03T00:24:34.952Z,7.50
2018-11-03T00:27:04.659Z,7.50
2018-11-03T00:29:33.464Z,7.60
2018-11-03T00:32:02.210Z,7.60
2018-11-03T00:34:30.979Z,7.60
2018-11-03T00:36:59.735Z,7.60
2018-11-03T00:39:28.503Z,7.60
2018-11-03T00:41:57.317Z,7.60
2018-11-03T00:44:26.131Z,7.60
2018-11-03T00:46:54.895Z,7.60
2018-11-03T00:49:23.660Z,7.70
2018-11-03T00:51:52.394Z,7.70
2018-11-03T00:54:21.201Z,7.80
2018-11-03T00:56:50.278Z,7.80
2018-11-03T00:59:19.076Z,7.70
2018-11-03T01:01:47.834Z,7.60
2018-11-03T01:04:16.633Z,7.70
2018-11-03T01:06:45.480Z,7.60
2018-11-03T01:09:14.260Z,7.70
2018-11-03T01:11:43.023Z,7.70
2018-11-03T01:14:11.836Z,7.70
2018-11-03T01:16:40.628Z,7.70
2018-11-03T01:19:09.410Z,7.70
2018-11-03T01:21:38.221Z,7.70
2018-11-03T01:24:07.563Z,7.60
2018-11-03T01:26:36.390Z,7.60
2018-11-03T01:29:05.226Z,7.70
2018-11-03T01:31:34.013Z,7.70
2018-11-03T01:34:02.915Z,7.70
2018-11-03T01:36:31.663Z,7.70
2018-11-03T01:39:00.455Z,7.60
2018-11-03T01:41:29.268Z,7.60
2018-11-03T01:43:58.021Z,7.70
2018-11-03T01:46:26.844Z,7.70
2018-11-03T01:48:55.583Z,7.60
2018-11-03T01:51:24.430Z,7.60
2018-11-03T01:53:53.664Z,7.60
2018-11-03T01:56:22.531Z,7.60
2018-11-03T01:58:51.424Z,7.50
2018-11-03T02:01:20.188Z,7.50
2018-11-03T02:03:48.923Z,7.50
2018-11-03T02:06:17.807Z,7.50
2018-11-03T02:08:46.576Z,7.50
2018-11-03T02:11:15.386Z,7.40
2018-11-03T02:13:44.186Z,7.40
2018-11-03T02:16:12.999Z,7.40
2018-11-03T02:18:41.863Z,7.40
2018-11-03T02:21:10.723Z,7.40
2018-11-03T02:23:39.464Z,7.30
2018-11-03T02:26:08.268Z,7.40
2018-11-03T02:28:37.102Z,7.40
2018-11-03T02:31:06.321Z,7.40
2018-11-03T02:33:35.263Z,7.40
2018-11-03T02:36:04.127Z,7.40
2018-11-03T02:38:32.883Z,7.40
2018-11-03T02:41:01.700Z,7.50
2018-11-03T02:43:30.481Z,7.40
2018-11-03T02:45:59.312Z,7.50
2018-11-03T02:48:28.088Z,7.60
2018-11-03T02:50:56.864Z,7.60
2018-11-03T02:53:25.714Z,7.60
2018-11-03T02:55:54.474Z,7.50
2018-11-03T02:58:23.249Z,7.60
2018-11-03T03:00:52.011Z,7.60
2018-11-03T03:03:20.787Z,7.60
2018-11-03T03:05:49.609Z,7.50
2018-11-03T03:08:18.421Z,7.50
2018-11-03T03:10:47.159Z,7.60
2018-11-03T03:13:16.330Z,7.50
2018-11-03T03:15:45.542Z,7.50
2018-11-03T03:18:14.261Z,7.50
2018-11-03T03:20:43.064Z,7.50
2018-11-03T03:23:11.800Z,7.50
2018-11-03T03:25:41.236Z,7.60
2018-11-03T03:28:10.018Z,7.60
2018-11-03T03:30:38.752Z,7.60
2018-11-03T03:33:07.588Z,7.60
2018-11-03T03:35:36.419Z,7.60
2018-11-03T03:38:05.401Z,7.60
2018-11-03T03:40:34.267Z,7.60
2018-11-03T03:43:03.002Z,7.60
2018-11-03T03:45:31.829Z,7.60
2018-11-03T03:48:00.583Z,7.60
2018-11-03T03:50:29.360Z,7.60
2018-11-03T03:52:58.117Z,7.60
2018-11-03T03:55:26.873Z,7.50
2018-11-03T03:57:55.645Z,7.50
2018-11-03T04:00:24.426Z,7.50
2018-11-03T04:02:53.248Z,7.50
2018-11-03T04:05:22.085Z,7.50
2018-11-03T04:07:50.929Z,7.50
2018-11-03T04:10:19.721Z,7.50
2018-11-03T04:12:48.459Z,7.50
2018-11-03T04:15:17.264Z,7.60
2018-11-03T04:17:45.971Z,7.60
2018-11-03T04:20:14.730Z,7.70
2018-11-03T04:22:43.472Z,7.60
2018-11-03T04:25:12.256Z,7.70
2018-11-03T04:27:41.061Z,7.70
2018-11-03T04:30:12.195Z,7.70
2018-11-03T04:32:40.992Z,7.60
2018-11-03T04:35:10.355Z,7.60
2018-11-03T04:37:39.448Z,7.60
2018-11-03T04:40:10.171Z,7.60
2018-11-03T04:42:38.995Z,7.60
2018-11-03T04:45:08.595Z,7.60
2018-11-03T04:47:37.422Z,7.60
2018-11-03T04:50:06.758Z,7.60
2018-11-03T04:52:35.528Z,7.60
2018-11-03T04:55:04.445Z,7.60
2018-11-03T04:57:33.211Z,7.60
2018-11-03T05:00:02.675Z,7.60
2018-11-03T05:02:31.442Z,7.80
2018-11-03T05:05:00.177Z,7.80
2018-11-03T05:07:28.963Z,7.90
2018-11-03T05:09:57.714Z,7.90
2018-11-03T05:12:26.516Z,7.90
2018-11-03T05:14:55.530Z,7.80
2018-11-03T05:17:24.295Z,7.90
2018-11-03T05:19:53.216Z,7.90
2018-11-03T05:22:21.973Z,7.90
2018-11-03T05:24:50.756Z,7.90
2018-11-03T05:27:19.481Z,7.80
2018-11-03T05:29:48.207Z,7.70
2018-11-03T05:32:17.047Z,7.70
2018-11-03T05:34:45.812Z,7.60
2018-11-03T05:37:14.571Z,7.70
2018-11-03T05:39:43.417Z,7.60
2018-11-03T05:42:12.195Z,7.60
2018-11-03T05:44:41.009Z,7.60
2018-11-03T05:47:09.803Z,7.60
2018-11-03T05:49:38.707Z,7.60
2018-11-03T05:52:07.480Z,7.60
2018-11-03T05:54:36.252Z,7.60
2018-11-03T05:57:05.440Z,7.60
2018-11-03T05:59:34.196Z,7.70
2018-11-03T06:02:03.724Z,7.60
2018-11-03T06:04:32.675Z,7.60
2018-11-03T06:07:01.420Z,7.60
2018-11-03T06:09:30.159Z,7.60
2018-11-03T06:11:58.932Z,7.60
2018-11-03T06:14:27.691Z,7.60
2018-11-03T06:16:56.500Z,7.60
2018-11-03T06:19:25.369Z,7.60
2018-11-03T06:21:54.157Z,7.60
2018-11-03T06:24:23.028Z,7.60
2018-11-03T06:26:51.759Z,7.60
2018-11-03T06:29:20.579Z,7.60
2018-11-03T06:31:49.463Z,7.60
2018-11-03T06:34:18.302Z,7.60
2018-11-03T06:36:47.084Z,7.60
2018-11-03T06:39:16.108Z,7.60
2018-11-03T06:41:44.998Z,7.70
2018-11-03T06:44:13.792Z,7.70
2018-11-03T06:46:42.621Z,7.70
2018-11-03T06:49:16.634Z,7.70
2018-11-03T06:51:45.436Z,7.70
2018-11-03T06:54:14.230Z,7.80
2018-11-03T06:56:43.768Z,7.80
2018-11-03T06:59:12.540Z,7.80
2018-11-03T07:01:41.307Z,7.80
2018-11-03T07:04:10.076Z,7.90
2018-11-03T07:06:38.867Z,7.90
2018-11-03T07:09:10.408Z,8.00
2018-11-03T07:11:39.864Z,8.00
2018-11-03T07:14:11.440Z,8.00
2018-11-03T07:16:46.075Z,8.00
2018-11-03T07:19:14.828Z,8.00
2018-11-03T07:21:43.574Z,8.10
2018-11-03T07:24:12.358Z,8.10
2018-11-03T07:26:41.123Z,8.10
2018-11-03T07:29:09.945Z,8.20
2018-11-03T07:31:38.717Z,8.20
2018-11-03T07:34:07.739Z,8.20
2018-11-03T07:36:36.484Z,8.30
2018-11-03T07:39:07.319Z,8.30
2018-11-03T07:41:36.245Z,8.40
2018-11-03T07:44:06.294Z,8.40
2018-11-03T07:46:35.099Z,8.40
2018-11-03T07:49:04.401Z,8.40
2018-11-03T07:51:32.811Z,8.50
2018-11-03T07:54:01.608Z,8.60
2018-11-03T07:56:30.314Z,8.60
2018-11-03T07:58:59.077Z,8.70
2018-11-03T08:01:27.848Z,8.80
2018-11-03T08:03:56.626Z,8.90
2018-11-03T08:06:25.387Z,9.00
2018-11-03T08:08:54.142Z,9.20
2018-11-03T08:11:22.961Z,9.30
2018-11-03T08:13:51.757Z,9.40
2018-11-03T08:16:20.518Z,9.50
2018-11-03T08:18:49.237Z,9.60
2018-11-03T08:21:17.954Z,9.70
2018-11-03T08:23:46.728Z,9.70
2018-11-03T08:26:15.512Z,9.70
2018-11-03T08:28:44.255Z,9.70
2018-11-03T08:31:12.952Z,9.70
2018-11-03T08:33:41.704Z,9.80
2018-11-03T08:36:10.411Z,9.80
2018-11-03T08:38:39.240Z,9.90
2018-11-03T08:41:08.003Z,9.90
2018-11-03T08:43:36.791Z,9.90
2018-11-03T08:46:06.451Z,9.90
2018-11-03T08:48:35.254Z,10.00
2018-11-03T08:51:04.460Z,10.10
2018-11-03T08:53:33.215Z,10.20
2018-11-03T08:56:02.119Z,10.30
2018-11-03T08:58:30.873Z,10.30
2018-11-03T09:00:59.943Z,10.40
2018-11-03T09:03:28.875Z,10.60
2018-11-03T09:05:57.618Z,10.70
2018-11-03T09:08:26.451Z,10.80
2018-11-03T09:10:55.208Z,10.80
2018-11-03T09:13:24.023Z,10.70
2018-11-03T09:15:52.768Z,10.70
2018-11-03T09:18:21.623Z,10.80
2018-11-03T09:20:52.483Z,10.90
2018-11-03T09:23:21.541Z,11.10
2018-11-03T09:25:50.313Z,11.10
2018-11-03T09:28:19.097Z,11.00
2018-11-03T09:30:48.028Z,11.00
2018-11-03T09:33:16.855Z,11.00
2018-11-03T09:35:45.734Z,11.00
2018-11-03T09:38:14.553Z,10.90
2018-11-03T09:40:43.311Z,10.70
2018-11-03T09:43:12.576Z,10.80
2018-11-03T09:45:41.375Z,11.00
2018-11-03T09:48:10.270Z,11.10
2018-11-03T09:50:39.325Z,11.20
2018-11-03T09:53:08.136Z,11.30
2018-11-03T09:55:37.440Z,11.40
2018-11-03T09:58:06.390Z,11.40
2018-11-03T10:00:35.264Z,11.50
2018-11-03T10:03:04.183Z,11.50
2018-11-03T10:05:32.940Z,11.50
2018-11-03T10:08:01.707Z,11.50
2018-11-03T10:10:30.474Z,11.90
2018-11-03T10:12:59.331Z,11.80
2018-11-03T10:15:28.094Z,11.70
2018-11-03T10:17:56.898Z,11.90
2018-11-03T10:20:25.843Z,11.80
2018-11-03T10:22:57.566Z,11.80
2018-11-03T10:25:26.892Z,11.70
2018-11-03T10:27:55.979Z,11.80
2018-11-03T10:30:24.965Z,11.80
2018-11-03T10:32:53.790Z,11.90
2018-11-03T10:35:22.714Z,11.80
2018-11-03T10:37:51.622Z,11.90
2018-11-03T10:40:20.572Z,11.90
2018-11-03T10:42:49.382Z,11.90
2018-11-03T10:45:18.218Z,12.00
2018-11-03T10:47:47.014Z,11.80
2018-11-03T10:50:17.872Z,11.80
2018-11-03T10:52:48.708Z,12.00
2018-11-03T10:55:18.781Z,11.90
2018-11-03T10:57:47.662Z,11.90
2018-11-03T11:00:22.968Z,12.00
2018-11-03T11:02:57.028Z,12.10
2018-11-03T11:05:30.988Z,12.20
2018-11-03T11:08:04.989Z,12.30
2018-11-03T11:10:40.053Z,12.40
2018-11-03T11:13:20.921Z,12.30
2018-11-03T11:15:50.962Z,12.40
2018-11-03T11:18:19.617Z,12.50
2018-11-03T11:20:48.376Z,12.70
2018-11-03T11:23:17.258Z,12.80
2018-11-03T11:25:46.021Z,12.80
2018-11-03T11:28:14.959Z,12.80
2018-11-03T11:30:44.751Z,12.90
2018-11-03T11:33:14.751Z,13.00
2018-11-03T11:35:43.522Z,13.20
2018-11-03T11:38:13.230Z,13.20
2018-11-03T11:40:42.707Z,13.20
2018-11-03T11:43:12.554Z,13.20
2018-11-03T11:45:41.270Z,13.20
2018-11-03T11:48:10.159Z,13.10
2018-11-03T11:50:38.923Z,13.10
2018-11-03T11:53:07.756Z,13.10
2018-11-03T11:55:36.658Z,13.00
2018-11-03T11:58:07.055Z,13.10
2018-11-03T12:00:36.043Z,13.30
2018-11-03T12:03:05.078Z,13.30
2018-11-03T12:05:33.857Z,13.30
2018-11-03T12:08:02.675Z,13.40
2018-11-03T12:10:31.438Z,13.40
2018-11-03T12:13:00.274Z,13.40
2018-11-03T12:15:29.092Z,13.40
2018-11-03T12:17:57.913Z,13.30
2018-11-03T12:20:26.911Z,13.30
2018-11-03T12:22:55.727Z,13.30
2018-11-03T12:25:24.604Z,13.20
2018-11-03T12:27:53.402Z,13.30
2018-11-03T12:30:22.185Z,13.40
2018-11-03T12:32:50.937Z,13.40
2018-11-03T12:35:19.790Z,13.50
2018-11-03T12:37:48.820Z,13.60
2018-11-03T12:40:17.657Z,13.60
2018-11-03T12:42:46.647Z,13.50
2018-11-03T12:45:15.591Z,13.50
2018-11-03T12:47:44.493Z,13.40
2018-11-03T12:50:15.044Z,13.40
2018-11-03T12:52:44.370Z,13.40
2018-11-03T12:55:13.728Z,13.40
2018-11-03T12:57:43.162Z,13.40
2018-11-03T13:00:14.521Z,13.40
2018-11-03T13:02:44.513Z,13.40
2018-11-03T13:05:13.704Z,13.40
2018-11-03T13:07:43.869Z,13.30
2018-11-03T13:10:12.894Z,13.30
2018-11-03T13:12:42.521Z,13.30
2018-11-03T13:15:12.332Z,13.30
2018-11-03T13:17:41.188Z,13.40
2018-11-03T13:20:11.902Z,13.40
2018-11-03T13:22:42.503Z,13.40
2018-11-03T13:25:12.113Z,13.40
2018-11-03T13:27:49.075Z,13.40
2018-11-03T13:30:17.975Z,13.40
2018-11-03T13:32:46.863Z,13.30
2018-11-03T13:35:15.853Z,13.40
2018-11-03T13:37:44.801Z,13.40
2018-11-03T13:40:14.445Z,13.40
2018-11-03T13:42:43.960Z,13.50
2018-11-03T13:45:12.828Z,13.50
2018-11-03T13:47:41.814Z,13.40
2018-11-03T13:50:12.373Z,13.20
2018-11-03T13:52:44.055Z,13.20
2018-11-03T13:55:12.811Z,13.10
2018-11-03T13:57:42.872Z,13.10
2018-11-03T14:00:15.106Z,13.10
2018-11-03T14:02:44.948Z,13.10
2018-11-03T14:05:14.083Z,13.00
2018-11-03T14:07:43.074Z,13.00
2018-11-03T14:10:15.815Z,13.00
2018-11-03T14:12:45.269Z,12.90
2018-11-03T14:15:15.573Z,12.90
2018-11-03T14:17:44.335Z,12.90
2018-11-03T14:20:14.139Z,12.80
2018-11-03T14:22:43.668Z,12.80
2018-11-03T14:25:16.037Z,12.70
2018-11-03T14:27:45.988Z,12.70
2018-11-03T14:30:15.060Z,12.70
2018-11-03T14:32:44.018Z,12.70
2018-11-03T14:35:14.694Z,12.70
2018-11-03T14:37:43.436Z,12.70
2018-11-03T14:40:13.954Z,12.70
2018-11-03T14:42:43.383Z,12.70
2018-11-03T14:45:13.189Z,12.70
2018-11-03T14:47:42.205Z,12.60
2018-11-03T14:50:11.138Z,12.60
2018-11-03T14:52:40.916Z,12.50
2018-11-03T14:55:10.798Z,12.50
2018-11-03T14:57:39.643Z,12.40
2018-11-03T15:00:13.607Z,12.40
2018-11-03T15:02:42.382Z,12.40
2018-11-03T15:05:11.743Z,12.40
2018-11-03T15:07:40.499Z,12.30
2018-11-03T15:10:10.208Z,12.30
2018-11-03T15:12:39.223Z,12.30
2018-11-03T15:15:09.482Z,12.30
2018-11-03T15:17:38.231Z,12.30
2018-11-03T15:20:07.735Z,12.20
2018-11-03T15:22:36.553Z,12.10
2018-11-03T15:25:06.276Z,12.10
2018-11-03T15:27:35.086Z,12.10
2018-11-03T15:30:03.940Z,12.10
2018-11-03T15:32:32.729Z,12.00
2018-11-03T15:35:01.797Z,12.00
2018-11-03T15:37:30.548Z,12.00
2018-11-03T15:39:59.343Z,12.00
2018-11-03T15:42:28.884Z,11.90
2018-11-03T15:44:57.675Z,11.80
2018-11-03T15:47:26.459Z,11.80
2018-11-03T15:49:55.251Z,11.80
2018-11-03T15:52:24.208Z,11.80
2018-11-03T15:54:53.039Z,11.80
2018-11-03T15:57:21.865Z,11.70
2018-11-03T15:59:50.713Z,11.70
2018-11-03T16:02:19.464Z,11.70
2018-11-03T16:04:49.009Z,11.70
2018-11-03T16:07:17.838Z,11.70
2018-11-03T16:09:46.605Z,11.80
2018-11-03T16:12:15.768Z,11.70
2018-11-03T16:14:44.448Z,11.70
2018-11-03T16:17:13.207Z,11.60
2018-11-03T16:19:42.168Z,11.70
2018-11-03T16:22:10.957Z,11.70
2018-11-03T16:24:39.738Z,11.70
2018-11-03T16:27:08.554Z,11.70
2018-11-03T16:29:37.301Z,11.70
2018-11-03T16:32:06.374Z,11.60
2018-11-03T16:34:35.089Z,11.60
2018-11-03T16:37:04.254Z,11.60
2018-11-03T16:39:33.018Z,11.60
2018-11-03T16:42:01.829Z,11.60
2018-11-03T16:44:30.582Z,11.60
2018-11-03T16:46:59.445Z,11.60
2018-11-03T16:49:28.235Z,11.50
2018-11-03T16:51:56.965Z,11.60
2018-11-03T16:54:27.588Z,11.60
2018-11-03T16:56:56.335Z,11.50
2018-11-03T16:59:25.323Z,11.50
2018-11-03T17:01:54.152Z,11.50
2018-11-03T17:04:23.008Z,11.50
2018-11-03T17:06:52.056Z,11.50
2018-11-03T17:09:21.225Z,11.50
2018-11-03T17:11:50.051Z,11.50
2018-11-03T17:14:19.274Z,11.40
2018-11-03T17:16:48.143Z,11.50
2018-11-03T17:19:17.529Z,11.40
2018-11-03T17:21:46.487Z,11.40
2018-11-03T17:24:15.407Z,11.40
2018-11-03T17:26:44.172Z,11.40
2018-11-03T17:29:12.995Z,11.40
2018-11-03T17:31:41.797Z,11.40
2018-11-03T17:34:10.644Z,11.40
2018-11-03T17:36:39.568Z,11.40
2018-11-03T17:39:09.862Z,11.30
2018-11-03T17:41:38.783Z,11.40
2018-11-03T17:44:07.775Z,11.30
2018-11-03T17:46:36.958Z,11.30
2018-11-03T17:49:06.076Z,11.30
2018-11-03T17:51:34.964Z,11.30
2018-11-03T17:54:03.837Z,11.30
2018-11-03T17:56:32.651Z,11.30
2018-11-03T17:59:02.458Z,11.30
2018-11-03T18:01:31.571Z,11.30
2018-11-03T18:04:00.247Z,11.30
2018-11-03T18:06:29.349Z,11.20
2018-11-03T18:08:58.164Z,11.20
2018-11-03T18:11:26.969Z,11.20
2018-11-03T18:13:55.811Z,11.20
2018-11-03T18:16:24.658Z,11.10
2018-11-03T18:18:53.493Z,11.10
2018-11-03T18:21:22.476Z,11.10
2018-11-03T18:23:51.325Z,11.10
2018-11-03T18:26:20.269Z,11.20
2018-11-03T18:28:49.008Z,11.20
2018-11-03T18:31:18.083Z,11.10
2018-11-03T18:33:47.456Z,11.10
2018-11-03T18:36:16.308Z,11.10
2018-11-03T18:38:45.148Z,11.10
2018-11-03T18:41:14.077Z,11.10
2018-11-03T18:43:42.869Z,11.10
2018-11-03T18:46:11.671Z,11.10
2018-11-03T18:48:40.634Z,11.10
2018-11-03T18:51:09.440Z,11.00
2018-11-03T18:53:38.501Z,11.00
2018-11-03T18:56:07.348Z,11.00
2018-11-03T18:58:36.124Z,11.10
2018-11-03T19:01:05.301Z,11.00
2018-11-03T19:03:34.107Z,11.00
2018-11-03T19:06:03.889Z,11.00
2018-11-03T19:08:32.740Z,11.00
2018-11-03T19:11:01.571Z,11.00
2018-11-03T19:13:30.366Z,11.00
2018-11-03T19:15:59.207Z,10.90
2018-11-03T19:18:28.041Z,10.90
2018-11-03T19:20:56.807Z,10.90
2018-11-03T19:23:25.724Z,10.90
2018-11-03T19:25:54.485Z,10.90
2018-11-03T19:28:23.909Z,10.90
2018-11-03T19:30:52.675Z,10.90
2018-11-03T19:33:21.467Z,10.90
2018-11-03T19:35:51.199Z,10.90
2018-11-03T19:38:20.040Z,10.90
2018-11-03T19:40:48.983Z,10.90
2018-11-03T19:43:17.743Z,10.90
2018-11-03T19:45:46.518Z,10.90
2018-11-03T19:48:15.880Z,10.90
2018-11-03T19:50:44.578Z,10.90
2018-11-03T19:53:13.494Z,10.90
2018-11-03T19:55:42.264Z,10.90
2018-11-03T20:00:30.436Z,10.80
2018-11-03T20:02:59.273Z,10.90
2018-11-03T20:05:28.036Z,10.80
2018-11-03T20:07:56.858Z,10.80
2018-11-03T20:10:25.644Z,10.80
2018-11-03T20:12:54.644Z,10.80
2018-11-03T20:15:23.386Z,10.80
2018-11-03T20:17:52.186Z,10.80
2018-11-03T20:20:20.967Z,10.70
2018-11-03T20:22:49.989Z,10.70
2018-11-03T20:25:18.876Z,10.70
2018-11-03T20:27:48.163Z,10.70
2018-11-03T20:30:17.600Z,10.70
2018-11-03T20:32:46.837Z,10.70
2018-11-03T20:35:15.535Z,10.70
2018-11-03T20:37:45.383Z,10.80
2018-11-03T20:40:14.765Z,10.80
2018-11-03T20:42:43.639Z,10.80
2018-11-03T20:45:12.334Z,10.80
2018-11-03T20:47:41.090Z,10.70
2018-11-03T20:50:11.976Z,10.70
2018-11-03T20:52:40.699Z,10.70
2018-11-03T20:55:10.298Z,10.70
2018-11-03T20:57:39.135Z,10.70
2018-11-03T21:00:10.311Z,10.70
2018-11-03T21:02:39.103Z,10.60
2018-11-03T21:05:08.840Z,10.70
2018-11-03T21:07:37.726Z,10.70
2018-11-03T21:10:06.750Z,10.70
2018-11-03T21:12:35.522Z,10.60
2018-11-03T21:15:04.332Z,10.60
2018-11-03T21:17:33.076Z,10.60
2018-11-03T21:20:01.891Z,10.60
2018-11-03T21:22:30.678Z,10.60
2018-11-03T21:24:59.402Z,10.60
2018-11-03T21:27:28.298Z,10.60
2018-11-03T21:29:57.095Z,10.60
2018-11-03T21:32:25.893Z,10.60
2018-11-03T21:34:54.646Z,10.60
2018-11-03T21:37:23.615Z,10.60
2018-11-03T21:39:52.324Z,10.60
2018-11-03T21:42:21.110Z,10.60
2018-11-03T21:44:49.837Z,10.60
2018-11-03T21:47:18.672Z,10.60
2018-11-03T21:49:47.421Z,10.60
2018-11-03T21:52:16.200Z,10.60
2018-11-03T21:54:44.952Z,10.60
2018-11-03T21:57:13.841Z,10.60
2018-11-03T21:59:42.612Z,10.60
2018-11-03T22:02:11.420Z,10.50
2018-11-03T22:04:40.195Z,10.50
2018-11-03T22:07:09.093Z,10.50
2018-11-03T22:09:37.849Z,10.50
2018-11-03T22:12:06.633Z,10.50
2018-11-03T22:14:35.371Z,10.50
2018-11-03T22:17:04.313Z,10.50
2018-11-03T22:19:33.047Z,10.50
2018-11-03T22:22:01.796Z,10.50
2018-11-03T22:24:30.555Z,10.50
2018-11-03T22:26:59.364Z,10.50
2018-11-03T22:29:28.092Z,10.40
2018-11-03T22:31:56.883Z,10.40
2018-11-03T22:34:25.600Z,10.40
2018-11-03T22:36:54.466Z,10.40
2018-11-03T22:39:23.234Z,10.40
2018-11-03T22:41:51.959Z,10.40
2018-11-03T22:44:20.795Z,10.40
2018-11-03T22:46:49.659Z,10.40
2018-11-03T22:49:18.425Z,10.40
2018-11-03T22:51:47.242Z,10.40
2018-11-03T22:54:15.971Z,10.30
2018-11-03T22:56:44.725Z,10.40
2018-11-03T22:59:13.904Z,10.30
2018-11-03T23:01:42.731Z,10.30
2018-11-03T23:04:11.714Z,10.30
2018-11-03T23:06:40.559Z,10.30
2018-11-03T23:09:09.318Z,10.30
2018-11-03T23:11:38.104Z,10.30
2018-11-03T23:14:06.898Z,10.30
2018-11-03T23:16:35.739Z,10.30
2018-11-03T23:19:04.510Z,10.30
2018-11-03T23:21:33.281Z,10.20
2018-11-03T23:24:02.385Z,10.30
2018-11-03T23:26:31.180Z,10.30
2018-11-03T23:28:59.942Z,10.20
2018-11-03T23:31:28.730Z,10.20
2018-11-03T23:33:57.459Z,10.20
2018-11-03T23:36:26.291Z,10.20
2018-11-03T23:38:55.041Z,10.20
2018-11-03T23:41:23.816Z,10.20
2018-11-03T23:43:54.005Z,10.10
2018-11-03T23:46:22.822Z,10.10
2018-11-03T23:48:51.573Z,10.20
2018-11-03T23:51:20.371Z,10.20
2018-11-03T23:53:49.082Z,10.20
2018-11-03T23:56:17.814Z,10.20
2018-11-03T23:58:46.555Z,10.20
